Opp, Alabama
Current Conditions -  °F | °C
As of 3:16 AM on Monday 22 Dec 2014 (Local Time) from K79J Reporting Station
Haze Haze  
Wind Chill: 55°   Ceiling: 200
Heat Index: 55°   Visibility: 0.75mi
Dew Point: 52°   Wind: 3mph
Humidity: 88%   Direction: 100°E
Pressure: 29.96"   Gusts: NA
Location:  31.29°N, 86.25°W
Report Text: K79J 220916Z AUTO 10003KT 3/4SM BR VV002 13/11 A2996 RMK AO2
Loading
Personal Weather Stations






























Interactive Weather Map New forecast layout! Learn more

10-Day Weather Forecast

Advertisements
Track Severe Weather on mobile